首页
METAR-TAF:

METAR-TAF

机场 :

Shawbury, 英格兰

纬度: 52-48N, 经度: 002-40W, 海拔: 76米

当前天气观测

该预报发布于29分钟前的07:50 UTC
风速2节,风向北转西北
温度 7°C
湿度 100%
气压 1038 hPa
能見度: 1500
阴天层高于200英尺
轻雾

METAR: EGOS 220750Z 34002KT 1500 BR OVC002 07/07 Q1038 NOSIG RMK AMB AMB

时间: 08:19 (08:19 UTC)

预报

该预报发布于1小时和28分钟前的06:51 UTC
预报有效从22日的 07点(UTC)到 22日的 15点(UTC)
风速4节,风向西转西北
能见度10公里或以上
多云层高于500英尺
短暂存在
从 22日的 07点(UTC)到 22日的 15点(UTC)
能見度: 4000
散云层高于300英尺
小毛毛雨, 轻雾
几率 30% :
短暂存在
从 22日的 07点(UTC)到 22日的 15点(UTC)
能見度: 1500
散云层高于200英尺
多云层高于300英尺
毛毛雨

TAF: EGOS 220651Z 2207/2215 30004KT 9999 BKN005 TEMPO 2207/2215 4000 -DZ BR SCT003 PROB30 TEMPO 2207/2215 1500 DZ SCT002 BKN003

超过4000个机场的气象观测和天气预报(METAR&TAF报告)。

可查询的气象台以黄色和红色小点在地图上表示。

将鼠标移到小点上方,可查看气象台名称。

然后点击查看天气观测和预报。

如需切换地图:点击带黑十字的绿色按钮放大地图;点击带横线的绿色按钮缩小地图;或者点击绿色箭头查看邻近地区的地图。


METAR-TAF: